sensor_id;sensor_type;location;lat;lon;timestamp;pressure;altitude;pressure_sealevel;temperature;humidity
74163;BME280;62515;52.758;5.076;2022-08-14T00:00:05;101372.84;;;21.89;74.19
74163;BME280;62515;52.758;5.076;2022-08-14T00:02:37;101374.22;;;21.94;74.27
74163;BME280;62515;52.758;5.076;2022-08-14T00:05:06;101366.41;;;21.99;73.35
74163;BME280;62515;52.758;5.076;2022-08-14T00:07:34;101373.22;;;21.95;73.46
74163;BME280;62515;52.758;5.076;2022-08-14T00:10:13;101357.56;;;21.88;72.63
74163;BME280;62515;52.758;5.076;2022-08-14T00:13:00;101365.41;;;21.92;71.84
74163;BME280;62515;52.758;5.076;2022-08-14T00:15:34;101361.16;;;21.89;71.20
74163;BME280;62515;52.758;5.076;2022-08-14T00:18:11;101358.47;;;21.89;70.40
74163;BME280;62515;52.758;5.076;2022-08-14T00:20:41;101359.47;;;21.88;69.93
74163;BME280;62515;52.758;5.076;2022-08-14T00:23:10;101355.41;;;21.84;70.03
74163;BME280;62515;52.758;5.076;2022-08-14T00:25:46;101352.53;;;21.94;69.26
74163;BME280;62515;52.758;5.076;2022-08-14T00:28:24;101354.41;;;21.93;69.34
74163;BME280;62515;52.758;5.076;2022-08-14T00:30:58;101348.13;;;21.93;68.86
74163;BME280;62515;52.758;5.076;2022-08-14T00:33:27;101346.13;;;21.95;68.84
74163;BME280;62515;52.758;5.076;2022-08-14T00:36:14;101341.19;;;21.90;68.84
74163;BME280;62515;52.758;5.076;2022-08-14T00:39:02;101340.50;;;21.96;68.53
74163;BME280;62515;52.758;5.076;2022-08-14T00:41:33;101338.81;;;21.95;69.16
74163;BME280;62515;52.758;5.076;2022-08-14T00:44:00;101341.19;;;21.90;69.47
74163;BME280;62515;52.758;5.076;2022-08-14T00:46:27;101344.56;;;21.92;69.65
74163;BME280;62515;52.758;5.076;2022-08-14T00:48:59;101341.19;;;21.90;69.97
74163;BME280;62515;52.758;5.076;2022-08-14T00:51:28;101335.78;;;21.90;70.08
74163;BME280;62515;52.758;5.076;2022-08-14T00:54:04;101333.06;;;21.90;70.49
74163;BME280;62515;52.758;5.076;2022-08-14T00:56:50;101332.38;;;21.88;70.96
74163;BME280;62515;52.758;5.076;2022-08-14T00:59:22;101337.94;;;21.78;71.42
74163;BME280;62515;52.758;5.076;2022-08-14T01:01:50;101321.03;;;21.68;72.08
74163;BME280;62515;52.758;5.076;2022-08-14T01:04:20;101319.16;;;21.69;71.65
74163;BME280;62515;52.758;5.076;2022-08-14T01:07:07;101324.75;;;21.67;71.71
74163;BME280;62515;52.758;5.076;2022-08-14T01:09:35;101317.63;;;21.66;71.97
74163;BME280;62515;52.758;5.076;2022-08-14T01:12:06;101317.81;;;21.65;72.24
74163;BME280;62515;52.758;5.076;2022-08-14T01:14:34;101313.22;;;21.57;72.44
74163;BME280;62515;52.758;5.076;2022-08-14T01:17:02;101305.25;;;21.56;72.03
74163;BME280;62515;52.758;5.076;2022-08-14T01:19:29;101308.00;;;21.48;72.72
74163;BME280;62515;52.758;5.076;2022-08-14T01:22:16;101307.84;;;21.49;72.44
74163;BME280;62515;52.758;5.076;2022-08-14T01:24:45;101291.75;;;21.48;72.24
74163;BME280;62515;52.758;5.076;2022-08-14T01:27:14;101295.63;;;21.53;72.13
74163;BME280;62515;52.758;5.076;2022-08-14T01:29:44;101291.41;;;21.51;72.07
74163;BME280;62515;52.758;5.076;2022-08-14T01:32:30;101286.00;;;21.43;72.48
74163;BME280;62515;52.758;5.076;2022-08-14T01:35:08;101276.34;;;21.48;71.96
74163;BME280;62515;52.758;5.076;2022-08-14T01:37:48;101275.47;;;21.39;72.78
74163;BME280;62515;52.758;5.076;2022-08-14T01:40:22;101277.19;;;21.32;73.02
74163;BME280;62515;52.758;5.076;2022-08-14T01:42:59;101276.50;;;21.30;73.26
74163;BME280;62515;52.758;5.076;2022-08-14T01:45:28;101274.47;;;21.24;73.47
74163;BME280;62515;52.758;5.076;2022-08-14T01:48:05;101273.09;;;21.20;73.80
74163;BME280;62515;52.758;5.076;2022-08-14T01:50:39;101264.16;;;21.28;72.97
74163;BME280;62515;52.758;5.076;2022-08-14T01:53:09;101259.06;;;21.41;72.19
74163;BME280;62515;52.758;5.076;2022-08-14T01:55:38;101253.50;;;21.34;72.58
74163;BME280;62515;52.758;5.076;2022-08-14T01:58:06;101260.44;;;21.29;73.08
74163;BME280;62515;52.758;5.076;2022-08-14T02:00:48;101248.06;;;21.26;72.70
74163;BME280;62515;52.758;5.076;2022-08-14T02:03:21;101257.19;;;21.33;72.39
74163;BME280;62515;52.758;5.076;2022-08-14T02:05:49;101250.63;;;21.28;72.75
74163;BME280;62515;52.758;5.076;2022-08-14T02:08:17;101249.94;;;21.18;73.12
74163;BME280;62515;52.758;5.076;2022-08-14T02:11:01;101243.78;;;21.08;73.52
74163;BME280;62515;52.758;5.076;2022-08-14T02:13:45;101248.69;;;20.96;73.64
74163;BME280;62515;52.758;5.076;2022-08-14T02:16:18;101238.72;;;21.05;73.14
74163;BME280;62515;52.758;5.076;2022-08-14T02:18:48;101239.56;;;20.97;73.62
74163;BME280;62515;52.758;5.076;2022-08-14T02:21:16;101232.81;;;20.93;74.48
74163;BME280;62515;52.758;5.076;2022-08-14T02:23:52;101237.88;;;21.04;73.26
74163;BME280;62515;52.758;5.076;2022-08-14T02:26:23;101233.47;;;20.95;73.91
74163;BME280;62515;52.758;5.076;2022-08-14T02:28:58;101226.38;;;20.86;74.78
74163;BME280;62515;52.758;5.076;2022-08-14T02:31:27;101225.50;;;20.77;75.41
74163;BME280;62515;52.758;5.076;2022-08-14T02:34:11;101226.38;;;20.86;74.99
74163;BME280;62515;52.758;5.076;2022-08-14T02:36:50;101226.00;;;20.73;75.95
74163;BME280;62515;52.758;5.076;2022-08-14T02:39:36;101229.34;;;20.59;76.38
74163;BME280;62515;52.758;5.076;2022-08-14T02:42:05;101223.22;;;20.41;77.10
74163;BME280;62515;52.758;5.076;2022-08-14T02:44:38;101226.16;;;20.21;78.02
74163;BME280;62515;52.758;5.076;2022-08-14T02:47:09;101219.16;;;20.11;77.75
74163;BME280;62515;52.758;5.076;2022-08-14T02:49:44;101216.91;;;19.98;78.54
74163;BME280;62515;52.758;5.076;2022-08-14T02:52:16;101223.31;;;19.97;78.38
74163;BME280;62515;52.758;5.076;2022-08-14T02:55:05;101221.41;;;20.23;77.37
74163;BME280;62515;52.758;5.076;2022-08-14T02:57:33;101217.25;;;20.29;76.98
74163;BME280;62515;52.758;5.076;2022-08-14T03:00:07;101216.09;;;20.31;77.14
74163;BME280;62515;52.758;5.076;2022-08-14T03:02:36;101210.59;;;20.23;77.54
74163;BME280;62515;52.758;5.076;2022-08-14T03:05:23;101205.19;;;20.23;77.89
74163;BME280;62515;52.758;5.076;2022-08-14T03:07:50;101207.38;;;20.12;78.30
74163;BME280;62515;52.758;5.076;2022-08-14T03:10:19;101205.13;;;20.07;78.60
74163;BME280;62515;52.758;5.076;2022-08-14T03:12:57;101207.84;;;20.07;79.01
74163;BME280;62515;52.758;5.076;2022-08-14T03:15:26;101194.44;;;19.90;79.69
74163;BME280;62515;52.758;5.076;2022-08-14T03:17:53;101206.69;;;19.84;80.33
74163;BME280;62515;52.758;5.076;2022-08-14T03:20:25;101198.91;;;19.81;80.27
74163;BME280;62515;52.758;5.076;2022-08-14T03:22:54;101197.94;;;19.90;80.33
74163;BME280;62515;52.758;5.076;2022-08-14T03:25:24;101196.94;;;19.91;80.16
74163;BME280;62515;52.758;5.076;2022-08-14T03:27:50;101200.66;;;19.90;80.00
74163;BME280;62515;52.758;5.076;2022-08-14T03:30:28;101199.31;;;19.86;80.13
74163;BME280;62515;52.758;5.076;2022-08-14T03:33:07;101200.91;;;20.05;79.29
74163;BME280;62515;52.758;5.076;2022-08-14T03:35:36;101196.31;;;19.97;79.57
74163;BME280;62515;52.758;5.076;2022-08-14T03:38:22;101195.63;;;19.95;79.89
74163;BME280;62515;52.758;5.076;2022-08-14T03:41:13;101201.34;;;19.92;80.38
74163;BME280;62515;52.758;5.076;2022-08-14T03:43:42;101189.84;;;19.90;80.30
74163;BME280;62515;52.758;5.076;2022-08-14T03:46:10;101196.63;;;19.94;80.46
74163;BME280;62515;52.758;5.076;2022-08-14T03:48:59;101191.16;;;19.78;81.11
74163;BME280;62515;52.758;5.076;2022-08-14T03:51:32;101189.53;;;19.93;80.85
74163;BME280;62515;52.758;5.076;2022-08-14T03:54:01;101188.56;;;20.02;80.71
74163;BME280;62515;52.758;5.076;2022-08-14T03:56:30;101186.72;;;20.03;81.18
74163;BME280;62515;52.758;5.076;2022-08-14T03:59:00;101193.00;;;20.11;81.19
74163;BME280;62515;52.758;5.076;2022-08-14T04:01:43;101184.44;;;19.90;81.80
74163;BME280;62515;52.758;5.076;2022-08-14T04:04:28;101182.91;;;19.79;82.60
74163;BME280;62515;52.758;5.076;2022-08-14T04:06:56;101192.31;;;19.75;82.65
74163;BME280;62515;52.758;5.076;2022-08-14T04:09:25;101184.75;;;19.53;83.42
74163;BME280;62515;52.758;5.076;2022-08-14T04:11:54;101197.97;;;19.64;83.16
74163;BME280;62515;52.758;5.076;2022-08-14T04:14:23;101192.13;;;19.77;82.26
74163;BME280;62515;52.758;5.076;2022-08-14T04:16:50;101192.53;;;19.82;82.25
74163;BME280;62515;52.758;5.076;2022-08-14T04:19:17;101178.69;;;19.85;82.22
74163;BME280;62515;52.758;5.076;2022-08-14T04:21:50;101181.19;;;19.78;82.01
74163;BME280;62515;52.758;5.076;2022-08-14T04:24:29;101182.38;;;19.76;82.40
74163;BME280;62515;52.758;5.076;2022-08-14T04:27:05;101176.25;;;19.74;82.27
74163;BME280;62515;52.758;5.076;2022-08-14T04:29:36;101171.50;;;19.68;82.66
74163;BME280;62515;52.758;5.076;2022-08-14T04:32:05;101176.75;;;19.69;83.07
74163;BME280;62515;52.758;5.076;2022-08-14T04:34:53;101175.06;;;19.68;82.87
74163;BME280;62515;52.758;5.076;2022-08-14T04:37:22;101176.75;;;19.69;83.02
74163;BME280;62515;52.758;5.076;2022-08-14T04:40:10;101160.03;;;19.66;82.71
74163;BME280;62515;52.758;5.076;2022-08-14T04:42:58;101166.00;;;19.77;82.47
74163;BME280;62515;52.758;5.076;2022-08-14T04:45:46;101167.50;;;19.72;83.26
74163;BME280;62515;52.758;5.076;2022-08-14T04:48:17;101116.44;;;19.61;82.34
74163;BME280;62515;52.758;5.076;2022-08-14T04:51:08;101163.88;;;19.97;81.56
74163;BME280;62515;52.758;5.076;2022-08-14T04:53:37;101162.56;;;20.01;81.20
74163;BME280;62515;52.758;5.076;2022-08-14T04:56:12;101155.44;;;20.00;80.87
74163;BME280;62515;52.758;5.076;2022-08-14T04:59:03;101159.38;;;20.06;80.74
74163;BME280;62515;52.758;5.076;2022-08-14T05:01:37;101160.56;;;20.11;80.83
74163;BME280;62515;52.758;5.076;2022-08-14T05:04:06;101158.34;;;20.07;81.38
74163;BME280;62515;52.758;5.076;2022-08-14T05:06:41;101155.81;;;20.05;81.60
74163;BME280;62515;52.758;5.076;2022-08-14T05:09:08;101156.53;;;20.15;80.34
74163;BME280;62515;52.758;5.076;2022-08-14T05:11:39;101160.31;;;20.30;79.07
74163;BME280;62515;52.758;5.076;2022-08-14T05:14:08;101161.19;;;20.31;78.82
74163;BME280;62515;52.758;5.076;2022-08-14T05:16:55;101152.06;;;20.32;79.15
74163;BME280;62515;52.758;5.076;2022-08-14T05:19:28;101148.31;;;20.33;79.04
74163;BME280;62515;52.758;5.076;2022-08-14T05:21:57;101144.81;;;20.49;77.57
74163;BME280;62515;52.758;5.076;2022-08-14T05:24:43;101151.25;;;20.56;77.50
74163;BME280;62515;52.758;5.076;2022-08-14T05:27:14;101146.22;;;20.61;76.90
74163;BME280;62515;52.758;5.076;2022-08-14T05:29:43;101138.75;;;20.63;77.31
74163;BME280;62515;52.758;5.076;2022-08-14T05:32:10;101138.59;;;20.64;77.47
74163;BME280;62515;52.758;5.076;2022-08-14T05:34:40;101140.44;;;20.72;76.47
74163;BME280;62515;52.758;5.076;2022-08-14T05:37:11;101136.06;;;20.71;76.13
74163;BME280;62515;52.758;5.076;2022-08-14T05:39:41;101139.78;;;20.70;77.15
74163;BME280;62515;52.758;5.076;2022-08-14T05:42:07;101136.91;;;20.71;76.93
74163;BME280;62515;52.758;5.076;2022-08-14T05:44:48;101144.84;;;20.73;76.16
74163;BME280;62515;52.758;5.076;2022-08-14T05:47:19;101148.41;;;20.73;76.34
74163;BME280;62515;52.758;5.076;2022-08-14T05:49:46;101147.88;;;20.78;76.39
74163;BME280;62515;52.758;5.076;2022-08-14T05:52:14;101131.69;;;20.86;75.91
74163;BME280;62515;52.758;5.076;2022-08-14T05:54:43;101125.78;;;20.91;75.55
74163;BME280;62515;52.758;5.076;2022-08-14T05:57:10;101129.66;;;20.96;75.39
74163;BME280;62515;52.758;5.076;2022-08-14T05:59:37;101117.78;;;20.97;75.52
74163;BME280;62515;52.758;5.076;2022-08-14T06:02:07;101116.44;;;21.01;75.23
74163;BME280;62515;52.758;5.076;2022-08-14T06:04:35;101117.13;;;21.03;75.07
74163;BME280;62515;52.758;5.076;2022-08-14T06:07:03;101122.19;;;21.06;75.77
74163;BME280;62515;52.758;5.076;2022-08-14T06:09:30;101132.19;;;21.14;75.44
74163;BME280;62515;52.758;5.076;2022-08-14T06:12:07;101121.19;;;21.15;75.94
74163;BME280;62515;52.758;5.076;2022-08-14T06:14:34;101127.97;;;21.19;75.07
74163;BME280;62515;52.758;5.076;2022-08-14T06:17:02;101125.56;;;21.24;75.50
74163;BME280;62515;52.758;5.076;2022-08-14T06:19:30;101129.66;;;21.28;75.46
74163;BME280;62515;52.758;5.076;2022-08-14T06:21:57;101120.81;;;21.26;75.82
74163;BME280;62515;52.758;5.076;2022-08-14T06:24:26;101123.38;;;21.36;74.57
74163;BME280;62515;52.758;5.076;2022-08-14T06:27:00;101125.03;;;21.45;74.84
74163;BME280;62515;52.758;5.076;2022-08-14T06:29:30;101127.22;;;21.50;75.28
74163;BME280;62515;52.758;5.076;2022-08-14T06:32:00;101131.59;;;21.59;75.20
74163;BME280;62515;52.758;5.076;2022-08-14T06:34:49;101128.56;;;21.62;74.74
74163;BME280;62515;52.758;5.076;2022-08-14T06:37:38;101113.81;;;21.56;74.41
74163;BME280;62515;52.758;5.076;2022-08-14T06:40:09;101118.88;;;21.67;75.33
74163;BME280;62515;52.758;5.076;2022-08-14T06:42:53;101130.22;;;21.71;74.87
74163;BME280;62515;52.758;5.076;2022-08-14T06:45:22;101131.91;;;21.72;74.15
74163;BME280;62515;52.758;5.076;2022-08-14T06:47:52;101125.78;;;21.70;74.24
74163;BME280;62515;52.758;5.076;2022-08-14T06:50:22;101126.13;;;21.75;74.14
74163;BME280;62515;52.758;5.076;2022-08-14T06:52:54;101123.72;;;21.80;74.27
74163;BME280;62515;52.758;5.076;2022-08-14T06:55:21;101119.31;;;21.87;74.17
74163;BME280;62515;52.758;5.076;2022-08-14T06:57:55;101124.03;;;21.93;73.63
74163;BME280;62515;52.758;5.076;2022-08-14T07:00:25;101133.97;;;22.09;72.32
74163;BME280;62515;52.758;5.076;2022-08-14T07:02:57;101123.75;;;22.19;71.76
74163;BME280;62515;52.758;5.076;2022-08-14T07:05:46;101116.75;;;22.24;71.04
74163;BME280;62515;52.758;5.076;2022-08-14T07:08:26;101117.88;;;22.38;69.72
74163;BME280;62515;52.758;5.076;2022-08-14T07:10:58;101123.06;;;22.48;68.89
74163;BME280;62515;52.758;5.076;2022-08-14T07:13:26;101130.09;;;22.57;69.08
74163;BME280;62515;52.758;5.076;2022-08-14T07:15:57;101117.88;;;22.61;69.79
74163;BME280;62515;52.758;5.076;2022-08-14T07:18:28;101127.78;;;22.76;69.31
74163;BME280;62515;52.758;5.076;2022-08-14T07:20:59;101120.06;;;22.88;68.67
74163;BME280;62515;52.758;5.076;2022-08-14T07:23:26;101113.53;;;22.97;66.96
74163;BME280;62515;52.758;5.076;2022-08-14T07:25:58;101108.91;;;23.20;67.18
74163;BME280;62515;52.758;5.076;2022-08-14T07:28:28;101094.84;;;23.31;67.32
74163;BME280;62515;52.758;5.076;2022-08-14T07:30:57;101109.91;;;23.57;66.82
74163;BME280;62515;52.758;5.076;2022-08-14T07:33:33;101112.03;;;23.61;65.06
74163;BME280;62515;52.758;5.076;2022-08-14T07:36:05;101119.25;;;23.69;64.47
74163;BME280;62515;52.758;5.076;2022-08-14T07:38:52;101096.13;;;23.73;63.88
74163;BME280;62515;52.758;5.076;2022-08-14T07:41:19;101116.09;;;23.80;63.27
74163;BME280;62515;52.758;5.076;2022-08-14T07:43:47;101120.94;;;23.99;64.31
74163;BME280;62515;52.758;5.076;2022-08-14T07:46:22;101117.63;;;24.18;63.09
74163;BME280;62515;52.758;5.076;2022-08-14T07:48:55;101109.69;;;24.02;63.84
74163;BME280;62515;52.758;5.076;2022-08-14T07:51:24;101098.94;;;23.79;63.54
74163;BME280;62515;52.758;5.076;2022-08-14T07:53:59;101101.16;;;23.90;64.06
74163;BME280;62515;52.758;5.076;2022-08-14T07:56:28;101085.59;;;23.99;64.22
74163;BME280;62515;52.758;5.076;2022-08-14T07:59:14;101097.47;;;24.70;61.96
74163;BME280;62515;52.758;5.076;2022-08-14T08:01:44;101096.69;;;25.53;59.65
74163;BME280;62515;52.758;5.076;2022-08-14T08:04:21;101101.28;;;25.93;57.19
74163;BME280;62515;52.758;5.076;2022-08-14T08:06:52;101095.47;;;26.09;56.52
74163;BME280;62515;52.758;5.076;2022-08-14T08:09:23;101095.75;;;26.21;57.06
74163;BME280;62515;52.758;5.076;2022-08-14T08:11:59;101091.03;;;26.56;57.01
74163;BME280;62515;52.758;5.076;2022-08-14T08:14:31;101087.50;;;26.88;56.58
74163;BME280;62515;52.758;5.076;2022-08-14T08:17:19;101107.03;;;27.05;55.26
74163;BME280;62515;52.758;5.076;2022-08-14T08:19:47;101096.72;;;27.20;55.29
74163;BME280;62515;52.758;5.076;2022-08-14T08:22:18;101099.69;;;27.18;55.03
74163;BME280;62515;52.758;5.076;2022-08-14T08:24:47;101094.19;;;27.25;54.54
74163;BME280;62515;52.758;5.076;2022-08-14T08:27:16;101094.72;;;27.79;53.80
74163;BME280;62515;52.758;5.076;2022-08-14T08:29:44;101098.09;;;28.26;51.18
74163;BME280;62515;52.758;5.076;2022-08-14T08:32:16;101086.03;;;27.95;53.23
74163;BME280;62515;52.758;5.076;2022-08-14T08:34:45;101083.50;;;27.94;52.26
74163;BME280;62515;52.758;5.076;2022-08-14T08:37:12;101082.28;;;28.34;52.53
74163;BME280;62515;52.758;5.076;2022-08-14T08:39:44;101076.38;;;28.37;50.90
74163;BME280;62515;52.758;5.076;2022-08-14T08:42:30;101070.97;;;28.55;50.01
74163;BME280;62515;52.758;5.076;2022-08-14T08:45:07;101067.72;;;28.72;50.22
74163;BME280;62515;52.758;5.076;2022-08-14T08:47:38;101054.19;;;29.01;49.38
74163;BME280;62515;52.758;5.076;2022-08-14T08:50:14;101060.97;;;28.74;49.38
74163;BME280;62515;52.758;5.076;2022-08-14T08:52:59;101058.22;;;29.17;48.20
74163;BME280;62515;52.758;5.076;2022-08-14T08:55:31;101059.56;;;28.27;49.67
74163;BME280;62515;52.758;5.076;2022-08-14T08:58:01;101019.28;;;28.41;48.72
74163;BME280;62515;52.758;5.076;2022-08-14T09:00:32;101044.38;;;28.63;49.57
74163;BME280;62515;52.758;5.076;2022-08-14T09:03:05;101047.50;;;29.16;48.63
74163;BME280;62515;52.758;5.076;2022-08-14T09:05:37;101050.81;;;28.75;48.11
74163;BME280;62515;52.758;5.076;2022-08-14T09:08:14;101045.03;;;28.89;49.25
74163;BME280;62515;52.758;5.076;2022-08-14T09:11:00;101049.25;;;28.29;49.39
74163;BME280;62515;52.758;5.076;2022-08-14T09:13:27;101033.38;;;27.56;52.21
74163;BME280;62515;52.758;5.076;2022-08-14T09:15:56;101034.66;;;27.40;52.80
74163;BME280;62515;52.758;5.076;2022-08-14T09:18:23;101014.13;;;27.18;52.90
74163;BME280;62515;52.758;5.076;2022-08-14T09:20:54;101037.00;;;27.30;53.59
74163;BME280;62515;52.758;5.076;2022-08-14T09:23:24;101035.28;;;28.06;51.22
74163;BME280;62515;52.758;5.076;2022-08-14T09:26:01;101038.38;;;28.47;49.21
74163;BME280;62515;52.758;5.076;2022-08-14T09:28:46;101044.59;;;28.68;47.85
74163;BME280;62515;52.758;5.076;2022-08-14T09:31:16;101047.47;;;29.77;47.36
74163;BME280;62515;52.758;5.076;2022-08-14T09:33:57;101047.94;;;30.40;45.00
74163;BME280;62515;52.758;5.076;2022-08-14T09:36:56;101039.03;;;31.49;41.35
74163;BME280;62515;52.758;5.076;2022-08-14T09:39:46;101028.19;;;31.19;41.43
74163;BME280;62515;52.758;5.076;2022-08-14T09:42:38;101023.22;;;31.68;38.74
74163;BME280;62515;52.758;5.076;2022-08-14T09:45:17;101028.56;;;31.86;37.27
74163;BME280;62515;52.758;5.076;2022-08-14T09:47:47;101020.91;;;32.33;36.29
74163;BME280;62515;52.758;5.076;2022-08-14T09:50:22;101012.19;;;31.79;38.88
74163;BME280;62515;52.758;5.076;2022-08-14T09:52:54;101017.97;;;32.23;36.17
74163;BME280;62515;52.758;5.076;2022-08-14T09:55:24;101009.25;;;31.57;37.31
74163;BME280;62515;52.758;5.076;2022-08-14T09:58:06;101010.13;;;31.86;37.18
74163;BME280;62515;52.758;5.076;2022-08-14T10:00:43;100995.13;;;32.22;38.10
74163;BME280;62515;52.758;5.076;2022-08-14T10:03:24;101008.84;;;32.50;37.12
74163;BME280;62515;52.758;5.076;2022-08-14T10:06:04;101004.50;;;32.54;36.40
74163;BME280;62515;52.758;5.076;2022-08-14T10:08:43;101010.66;;;33.28;36.57
74163;BME280;62515;52.758;5.076;2022-08-14T10:11:18;101005.25;;;33.00;36.67
74163;BME280;62515;52.758;5.076;2022-08-14T10:13:52;101001.34;;;32.79;35.49
74163;BME280;62515;52.758;5.076;2022-08-14T10:16:22;100999.81;;;33.22;36.18
74163;BME280;62515;52.758;5.076;2022-08-14T10:19:04;100991.06;;;33.30;34.11
74163;BME280;62515;52.758;5.076;2022-08-14T10:21:33;100993.66;;;33.58;34.71
74163;BME280;62515;52.758;5.076;2022-08-14T10:24:05;100976.94;;;32.88;35.48
74163;BME280;62515;52.758;5.076;2022-08-14T10:26:35;100968.63;;;32.66;36.64
74163;BME280;62515;52.758;5.076;2022-08-14T10:29:06;100963.41;;;32.53;36.61
74163;BME280;62515;52.758;5.076;2022-08-14T10:31:56;100960.16;;;32.06;37.58
74163;BME280;62515;52.758;5.076;2022-08-14T10:34:30;100963.50;;;31.96;38.56
74163;BME280;62515;52.758;5.076;2022-08-14T10:37:04;100958.69;;;31.75;38.66
74163;BME280;62515;52.758;5.076;2022-08-14T10:39:41;100960.31;;;32.33;36.91
74163;BME280;62515;52.758;5.076;2022-08-14T10:42:34;100956.06;;;32.92;37.82
74163;BME280;62515;52.758;5.076;2022-08-14T10:45:15;100961.91;;;32.45;39.24
74163;BME280;62515;52.758;5.076;2022-08-14T10:47:47;100960.19;;;32.73;36.86
74163;BME280;62515;52.758;5.076;2022-08-14T10:50:39;100952.53;;;32.13;39.68
74163;BME280;62515;52.758;5.076;2022-08-14T10:53:08;100957.16;;;33.29;37.64
74163;BME280;62515;52.758;5.076;2022-08-14T10:55:37;100957.41;;;31.94;38.55
74163;BME280;62515;52.758;5.076;2022-08-14T10:58:11;100963.34;;;32.03;38.99
74163;BME280;62515;52.758;5.076;2022-08-14T11:00:53;100953.44;;;32.63;38.78
74163;BME280;62515;52.758;5.076;2022-08-14T11:03:23;100944.50;;;31.95;39.07
74163;BME280;62515;52.758;5.076;2022-08-14T11:06:16;100940.69;;;32.29;38.70
74163;BME280;62515;52.758;5.076;2022-08-14T11:08:46;100934.63;;;32.27;38.67
74163;BME280;62515;52.758;5.076;2022-08-14T11:11:17;100927.81;;;32.85;37.56
74163;BME280;62515;52.758;5.076;2022-08-14T11:13:44;100930.78;;;32.61;39.62
74163;BME280;62515;52.758;5.076;2022-08-14T11:16:13;100922.78;;;32.98;37.75
74163;BME280;62515;52.758;5.076;2022-08-14T11:18:46;100926.75;;;32.52;38.47
74163;BME280;62515;52.758;5.076;2022-08-14T11:21:18;100926.19;;;32.67;37.70
74163;BME280;62515;52.758;5.076;2022-08-14T11:23:48;100920.13;;;33.25;38.52
74163;BME280;62515;52.758;5.076;2022-08-14T11:26:19;100915.47;;;32.87;38.10
74163;BME280;62515;52.758;5.076;2022-08-14T11:28:50;100919.56;;;32.85;39.49
74163;BME280;62515;52.758;5.076;2022-08-14T11:31:20;100918.16;;;32.32;38.01
74163;BME280;62515;52.758;5.076;2022-08-14T11:33:50;100909.25;;;32.97;37.62
74163;BME280;62515;52.758;5.076;2022-08-14T11:36:25;100920.19;;;32.70;36.77
74163;BME280;62515;52.758;5.076;2022-08-14T11:39:18;100921.47;;;32.84;39.07
74163;BME280;62515;52.758;5.076;2022-08-14T11:42:03;100911.31;;;33.06;38.57
74163;BME280;62515;52.758;5.076;2022-08-14T11:44:51;100906.88;;;33.05;38.97
74163;BME280;62515;52.758;5.076;2022-08-14T11:47:31;100907.59;;;32.96;39.65
74163;BME280;62515;52.758;5.076;2022-08-14T11:50:16;100899.38;;;33.44;36.42
74163;BME280;62515;52.758;5.076;2022-08-14T11:53:03;100896.38;;;32.81;38.70
74163;BME280;62515;52.758;5.076;2022-08-14T11:55:33;100900.38;;;32.73;38.82
74163;BME280;62515;52.758;5.076;2022-08-14T11:58:02;100910.47;;;33.49;38.30
74163;BME280;62515;52.758;5.076;2022-08-14T12:00:31;100888.97;;;33.08;38.46
74163;BME280;62515;52.758;5.076;2022-08-14T12:03:06;100898.97;;;32.54;38.08
74163;BME280;62515;52.758;5.076;2022-08-14T12:05:39;100903.31;;;32.33;38.75
74163;BME280;62515;52.758;5.076;2022-08-14T12:08:09;100895.75;;;32.79;38.37
74163;BME280;62515;52.758;5.076;2022-08-14T12:10:40;100899.81;;;32.93;38.27
74163;BME280;62515;52.758;5.076;2022-08-14T12:13:13;100890.63;;;33.52;38.36
74163;BME280;62515;52.758;5.076;2022-08-14T12:15:45;100883.38;;;32.81;37.69
74163;BME280;62515;52.758;5.076;2022-08-14T12:18:13;100887.78;;;32.99;38.03
74163;BME280;62515;52.758;5.076;2022-08-14T12:20:45;100893.88;;;33.44;37.08
74163;BME280;62515;52.758;5.076;2022-08-14T12:23:20;100891.88;;;33.61;36.41
74163;BME280;62515;52.758;5.076;2022-08-14T12:25:48;100891.47;;;33.26;37.05
74163;BME280;62515;52.758;5.076;2022-08-14T12:28:36;100874.13;;;32.87;38.30
74163;BME280;62515;52.758;5.076;2022-08-14T12:31:24;100886.59;;;33.11;36.49
74163;BME280;62515;52.758;5.076;2022-08-14T12:33:58;100885.00;;;33.16;36.48
74163;BME280;62515;52.758;5.076;2022-08-14T12:36:26;100891.09;;;33.66;36.45
74163;BME280;62515;52.758;5.076;2022-08-14T12:38:57;100875.44;;;32.85;35.59
74163;BME280;62515;52.758;5.076;2022-08-14T12:41:25;100877.94;;;32.48;36.56
74163;BME280;62515;52.758;5.076;2022-08-14T12:44:01;100871.94;;;32.89;37.23
74163;BME280;62515;52.758;5.076;2022-08-14T12:46:28;100871.97;;;32.73;36.37
74163;BME280;62515;52.758;5.076;2022-08-14T12:48:59;100859.59;;;32.75;36.50
74163;BME280;62515;52.758;5.076;2022-08-14T12:51:28;100856.00;;;32.75;37.67
74163;BME280;62515;52.758;5.076;2022-08-14T12:53:56;100848.22;;;32.17;36.73
74163;BME280;62515;52.758;5.076;2022-08-14T12:56:25;100845.25;;;32.18;38.10
74163;BME280;62515;52.758;5.076;2022-08-14T12:59:00;100832.28;;;32.35;38.21
74163;BME280;62515;52.758;5.076;2022-08-14T13:01:28;100825.63;;;32.70;35.78
74163;BME280;62515;52.758;5.076;2022-08-14T13:04:07;100827.31;;;33.14;34.40
74163;BME280;62515;52.758;5.076;2022-08-14T13:06:36;100822.81;;;32.65;36.08
74163;BME280;62515;52.758;5.076;2022-08-14T13:09:04;100823.88;;;32.25;35.90
74163;BME280;62515;52.758;5.076;2022-08-14T13:11:40;100816.50;;;32.47;36.64
74163;BME280;62515;52.758;5.076;2022-08-14T13:14:11;100823.56;;;32.05;36.92
74163;BME280;62515;52.758;5.076;2022-08-14T13:16:43;100816.00;;;31.50;38.53
74163;BME280;62515;52.758;5.076;2022-08-14T13:19:18;100816.28;;;32.16;37.73
74163;BME280;62515;52.758;5.076;2022-08-14T13:21:47;100810.19;;;32.13;37.57
74163;BME280;62515;52.758;5.076;2022-08-14T13:24:36;100805.84;;;31.84;37.23